createdAt,value
2018-04-24T00:00:54.052Z,98.60
2018-04-24T00:03:22.301Z,98.30
2018-04-24T00:05:49.832Z,98.30
2018-04-24T00:08:17.335Z,98.30
2018-04-24T00:10:45.571Z,97.90
2018-04-24T00:13:13.048Z,97.90
2018-04-24T00:15:40.508Z,97.80
2018-04-24T00:18:07.987Z,97.80
2018-04-24T00:20:35.448Z,98.00
2018-04-24T00:23:02.967Z,97.90
2018-04-24T00:25:30.437Z,97.90
2018-04-24T00:27:57.915Z,97.60
2018-04-24T00:30:26.895Z,97.20
2018-04-24T00:32:54.360Z,97.30
2018-04-24T00:35:21.831Z,97.20
2018-04-24T00:37:49.294Z,96.70
2018-04-24T00:40:16.780Z,96.60
2018-04-24T00:42:45.324Z,96.60
2018-04-24T00:45:12.796Z,96.70
2018-04-24T00:47:40.277Z,96.80
2018-04-24T00:50:08.503Z,97.10
2018-04-24T00:52:35.987Z,97.10
2018-04-24T00:55:03.451Z,97.30
2018-04-24T00:57:31.704Z,97.60
2018-04-24T00:59:59.169Z,97.60
2018-04-24T01:02:26.631Z,97.50
2018-04-24T01:04:54.107Z,97.50
2018-04-24T01:07:22.344Z,97.50
2018-04-24T01:09:49.826Z,97.50
2018-04-24T01:12:17.305Z,97.70
2018-04-24T01:14:45.547Z,97.70
2018-04-24T01:17:14.529Z,97.80
2018-04-24T01:19:42.009Z,97.70
2018-04-24T01:22:09.468Z,98.00
2018-04-24T01:24:36.925Z,98.10
2018-04-24T01:27:04.400Z,98.10
2018-04-24T01:29:32.628Z,98.20
2018-04-24T01:32:00.110Z,98.20
2018-04-24T01:34:27.577Z,98.20
2018-04-24T01:36:55.060Z,98.30
2018-04-24T01:39:23.284Z,98.40
2018-04-24T01:41:50.753Z,98.40
2018-04-24T01:44:18.232Z,98.40
2018-04-24T01:46:46.460Z,98.60
2018-04-24T01:49:13.935Z,98.60
2018-04-24T01:51:41.396Z,98.70
2018-04-24T01:54:08.875Z,98.80
2018-04-24T01:56:36.344Z,99.00
2018-04-24T01:59:04.577Z,99.20
2018-04-24T02:01:32.054Z,99.10
2018-04-24T02:03:59.507Z,99.20
2018-04-24T02:06:26.987Z,99.20
2018-04-24T02:08:54.456Z,99.20
2018-04-24T02:11:22.710Z,99.10
2018-04-24T02:13:50.179Z,99.10
2018-04-24T02:16:18.408Z,99.40
2018-04-24T02:18:45.883Z,99.10
2018-04-24T02:21:13.344Z,99.20
2018-04-24T02:23:40.827Z,99.30
2018-04-24T02:26:08.296Z,99.30
2018-04-24T02:28:36.524Z,99.60
2018-04-24T02:31:04.003Z,99.60
2018-04-24T02:33:31.463Z,99.70
2018-04-24T02:35:59.080Z,99.90
2018-04-24T02:38:26.544Z,99.90
2018-04-24T02:40:54.034Z,99.90
2018-04-24T02:43:21.489Z,99.90
2018-04-24T02:45:48.961Z,99.90
2018-04-24T02:48:16.448Z,99.90
2018-04-24T02:50:44.677Z,99.90
2018-04-24T02:53:12.164Z,99.90
2018-04-24T02:55:39.650Z,99.90
2018-04-24T02:58:07.893Z,99.90
2018-04-24T03:00:35.348Z,99.90
2018-04-24T03:03:02.828Z,99.90
2018-04-24T03:05:31.068Z,99.90
2018-04-24T03:07:58.528Z,99.90
2018-04-24T03:10:26.779Z,99.90
2018-04-24T03:12:54.235Z,99.90
2018-04-24T03:15:21.704Z,99.90
2018-04-24T03:17:49.175Z,99.90
2018-04-24T03:20:16.636Z,99.90
2018-04-24T03:22:45.641Z,99.90
2018-04-24T03:25:13.103Z,99.90
2018-04-24T03:27:40.563Z,99.90
2018-04-24T03:30:08.817Z,99.90
2018-04-24T03:32:36.292Z,99.90
2018-04-24T03:35:03.776Z,99.90
2018-04-24T03:37:32.005Z,99.90
2018-04-24T03:39:59.463Z,99.90
2018-04-24T03:42:26.945Z,99.90
2018-04-24T03:44:54.412Z,99.90
2018-04-24T03:47:22.660Z,99.90
2018-04-24T03:49:50.121Z,99.90
2018-04-24T03:52:17.593Z,99.90
2018-04-24T03:54:45.084Z,99.90
2018-04-24T03:57:12.673Z,99.90
2018-04-24T03:59:40.077Z,99.90
2018-04-24T04:02:08.310Z,99.90
2018-04-24T04:04:35.775Z,99.90
2018-04-24T04:07:03.292Z,99.90
2018-04-24T04:09:31.520Z,99.90
2018-04-24T04:11:59.200Z,99.90
2018-04-24T04:14:26.968Z,99.90
2018-04-24T04:16:55.112Z,99.90
2018-04-24T04:19:34.651Z,99.90
2018-04-24T04:25:08.795Z,99.90
2018-04-24T04:27:36.260Z,99.90
2018-04-24T04:30:03.763Z,99.90
2018-04-24T04:32:31.244Z,99.90
2018-04-24T04:34:59.722Z,99.90
2018-04-24T04:37:27.208Z,99.90
2018-04-24T04:39:54.680Z,99.90
2018-04-24T04:42:22.172Z,99.90
2018-04-24T04:44:50.419Z,99.90
2018-04-24T04:47:17.896Z,99.90
2018-04-24T04:49:46.136Z,99.80
2018-04-24T04:52:13.600Z,99.80
2018-04-24T04:54:41.090Z,99.70
2018-04-24T04:57:09.370Z,99.60
2018-04-24T04:59:37.600Z,99.50
2018-04-24T05:02:05.085Z,99.50
2018-04-24T05:04:32.540Z,99.30
2018-04-24T05:07:00.025Z,99.70
2018-04-24T05:09:27.515Z,99.50
2018-04-24T05:11:55.011Z,99.20
2018-04-24T05:14:22.473Z,99.30
2018-04-24T05:16:49.932Z,99.40
2018-04-24T05:19:17.407Z,99.30
2018-04-24T05:21:45.647Z,99.10
2018-04-24T05:24:13.159Z,99.00
2018-04-24T05:26:40.644Z,99.10
2018-04-24T05:29:08.100Z,99.30
2018-04-24T05:31:35.904Z,99.50
2018-04-24T05:34:03.364Z,99.30
2018-04-24T05:36:30.826Z,99.40
2018-04-24T05:38:58.304Z,99.10
2018-04-24T05:41:26.531Z,99.60
2018-04-24T05:43:54.020Z,99.40
2018-04-24T05:46:22.247Z,99.40
2018-04-24T05:48:49.712Z,99.10
2018-04-24T05:51:17.199Z,98.80
2018-04-24T05:53:44.657Z,99.00
2018-04-24T05:56:12.135Z,98.50
2018-04-24T05:58:40.368Z,98.50
2018-04-24T06:01:07.828Z,98.40
2018-04-24T06:03:35.305Z,98.10
2018-04-24T07:35:33.416Z,95.80
2018-04-24T07:38:01.677Z,95.70
2018-04-24T07:40:29.183Z,95.40
2018-04-24T07:42:56.664Z,95.00
2018-04-24T07:45:24.156Z,95.00
2018-04-24T07:47:52.407Z,95.10
2018-04-24T07:50:19.891Z,95.00
2018-04-24T07:52:47.352Z,94.90
2018-04-24T07:55:15.591Z,94.30
2018-04-24T07:57:43.082Z,94.20
2018-04-24T08:00:10.543Z,94.10
2018-04-24T08:02:38.035Z,94.20
2018-04-24T08:05:05.500Z,94.40
2018-04-24T08:07:32.962Z,94.30
2018-04-24T08:10:00.465Z,94.00
2018-04-24T08:12:27.932Z,94.20
2018-04-24T08:14:56.183Z,93.80
2018-04-24T08:17:23.664Z,93.80
2018-04-24T08:19:51.887Z,94.20
2018-04-24T08:22:19.369Z,94.20
2018-04-24T08:24:46.837Z,93.90
2018-04-24T08:27:14.324Z,93.80
2018-04-24T08:29:42.607Z,93.90
2018-04-24T08:32:10.836Z,93.70
2018-04-24T08:34:38.316Z,93.70
2018-04-24T08:37:05.828Z,93.50
2018-04-24T08:39:33.316Z,93.60
2018-04-24T08:42:00.800Z,93.70
2018-04-24T08:44:28.299Z,93.80
2018-04-24T08:46:55.814Z,93.80
2018-04-24T08:49:23.294Z,93.90
2018-04-24T08:51:51.681Z,94.10
2018-04-24T08:54:19.183Z,94.10
2018-04-24T08:56:46.657Z,94.30
2018-04-24T08:59:14.154Z,94.30
2018-04-24T09:01:42.419Z,94.50
2018-04-24T09:04:10.693Z,94.40
2018-04-24T09:06:39.045Z,94.50
2018-04-24T09:09:06.536Z,94.50
2018-04-24T09:11:34.780Z,94.70
2018-04-24T09:14:02.280Z,94.70
2018-04-24T09:16:30.586Z,94.90
2018-04-24T09:18:58.093Z,94.90
2018-04-24T09:21:26.334Z,95.00
2018-04-24T09:23:53.828Z,95.00
2018-04-24T09:26:22.796Z,95.60
2018-04-24T09:28:50.399Z,95.60
2018-04-24T09:31:18.856Z,95.40
2018-04-24T09:33:47.124Z,95.60
2018-04-24T09:36:14.644Z,95.50
2018-04-24T09:38:42.109Z,95.70
2018-04-24T09:41:09.628Z,96.20
2018-04-24T09:43:37.860Z,96.50
2018-04-24T09:46:05.429Z,96.50
2018-04-24T09:48:32.835Z,96.60
2018-04-24T09:51:00.302Z,96.70
2018-04-24T09:53:27.788Z,97.00
2018-04-24T09:55:55.262Z,97.20
2018-04-24T09:58:22.733Z,97.30
2018-04-24T10:00:50.234Z,97.60
2018-04-24T10:03:17.712Z,97.60
2018-04-24T10:05:45.208Z,97.60
2018-04-24T10:08:13.451Z,97.60
2018-04-24T10:10:40.932Z,97.60
2018-04-24T10:13:08.485Z,97.90
2018-04-24T10:15:35.906Z,97.90
2018-04-24T10:18:03.419Z,97.90
2018-04-24T10:20:30.912Z,97.80
2018-04-24T10:22:58.422Z,97.70
2018-04-24T10:25:25.913Z,97.60
2018-04-24T10:27:54.140Z,97.40
2018-04-24T10:30:21.636Z,97.30
2018-04-24T10:32:49.868Z,97.60
2018-04-24T10:35:17.332Z,97.50
2018-04-24T10:37:44.804Z,97.30
2018-04-24T10:40:12.268Z,97.10
2018-04-24T10:42:39.768Z,97.40
2018-04-24T10:45:07.257Z,97.10
2018-04-24T10:47:34.733Z,97.20
2018-04-24T10:50:02.251Z,97.30
2018-04-24T10:52:29.747Z,97.30
2018-04-24T10:54:57.279Z,97.40
2018-04-24T10:57:24.839Z,97.20
2018-04-24T10:59:52.299Z,96.90
2018-04-24T11:02:19.779Z,96.80
2018-04-24T11:04:47.248Z,96.70
2018-04-24T11:07:35.696Z,96.50
2018-04-24T11:10:03.160Z,96.20
2018-04-24T11:12:30.679Z,96.00
2018-04-24T11:14:58.193Z,96.20
2018-04-24T11:17:25.658Z,96.20
2018-04-24T11:19:53.908Z,95.90
2018-04-24T11:22:21.374Z,95.80
2018-04-24T11:24:48.840Z,95.50
2018-04-24T11:27:16.316Z,95.10
2018-04-24T11:29:44.595Z,95.00
2018-04-24T11:32:12.859Z,94.80
2018-04-24T11:34:40.352Z,94.80
2018-04-24T11:37:07.819Z,94.60
2018-04-24T11:39:35.304Z,94.50
2018-04-24T11:42:02.763Z,94.40
2018-04-24T11:44:30.292Z,94.30
2018-04-24T11:46:57.757Z,94.20
2018-04-24T11:49:25.240Z,93.90
2018-04-24T11:51:53.594Z,93.90
2018-04-24T11:54:21.062Z,93.70
2018-04-24T11:56:48.652Z,93.80
2018-04-24T11:59:16.127Z,93.80
2018-04-24T12:01:44.389Z,93.60
2018-04-24T12:04:11.876Z,93.60
2018-04-24T12:06:40.127Z,93.50
2018-04-24T12:09:07.616Z,93.50
2018-04-24T12:11:35.908Z,94.00
2018-04-24T12:14:03.455Z,93.90
2018-04-24T12:16:30.932Z,94.00
2018-04-24T12:18:58.390Z,94.40
2018-04-24T12:21:25.879Z,94.30
2018-04-24T12:23:53.374Z,94.10
2018-04-24T12:26:21.781Z,94.20
2018-04-24T12:28:49.244Z,94.20
2018-04-24T12:31:16.705Z,94.20
2018-04-24T12:33:44.180Z,94.60
2018-04-24T12:36:11.660Z,94.30
2018-04-24T12:38:39.150Z,94.50
2018-04-24T12:41:07.375Z,94.90
2018-04-24T12:43:34.851Z,94.80
2018-04-24T12:46:02.331Z,94.70
2018-04-24T12:48:30.556Z,95.00
2018-04-24T12:50:58.125Z,94.90
2018-04-24T12:53:25.600Z,94.50
2018-04-24T12:55:53.879Z,94.70
2018-04-24T12:58:21.360Z,94.70
2018-04-24T13:00:49.612Z,95.10
2018-04-24T13:03:17.091Z,95.00
2018-04-24T13:05:45.346Z,95.00
2018-04-24T13:08:12.813Z,95.10
2018-04-24T13:10:40.287Z,95.10
2018-04-24T13:13:08.552Z,95.90
2018-04-24T13:15:36.047Z,95.80
2018-04-24T13:18:03.663Z,96.20
2018-04-24T13:20:31.179Z,96.60
2018-04-24T13:22:58.671Z,97.00
2018-04-24T13:25:27.023Z,96.80
2018-04-24T13:27:55.224Z,96.70
2018-04-24T13:30:22.717Z,96.60
2018-04-24T13:32:50.960Z,95.90
2018-04-24T13:35:18.435Z,95.90
2018-04-24T13:37:45.951Z,95.80
2018-04-24T13:40:13.417Z,95.80
2018-04-24T13:42:40.896Z,95.00
2018-04-24T13:45:08.356Z,94.80
2018-04-24T13:47:35.823Z,94.50
2018-04-24T13:50:03.308Z,94.50
2018-04-24T13:52:31.548Z,94.70
2018-04-24T13:54:59.839Z,94.30
2018-04-24T13:57:27.299Z,94.30
2018-04-24T13:59:54.825Z,94.10
2018-04-24T14:02:22.322Z,93.60
2018-04-24T14:04:50.595Z,93.70
2018-04-24T14:07:18.091Z,93.70
2018-04-24T14:09:45.597Z,93.70
2018-04-24T14:12:13.184Z,93.60
2018-04-24T14:14:40.593Z,94.00
2018-04-24T14:17:08.160Z,94.20
2018-04-24T14:19:35.624Z,94.80
2018-04-24T14:22:03.084Z,95.00
2018-04-24T14:24:30.562Z,95.30
2018-04-24T14:26:58.047Z,95.10
2018-04-24T14:29:25.561Z,95.20
2018-04-24T14:31:53.054Z,95.40
2018-04-24T14:34:20.566Z,95.10
2018-04-24T14:36:48.509Z,95.30
2018-04-24T14:39:16.436Z,95.00
2018-04-24T14:41:44.852Z,95.50
2018-04-24T14:44:12.336Z,95.50
2018-04-24T14:46:39.816Z,95.80
2018-04-24T14:49:08.093Z,95.90
2018-04-24T14:51:35.640Z,95.70
2018-04-24T14:54:03.817Z,96.20
2018-04-24T14:56:31.324Z,96.20
2018-04-24T14:58:58.815Z,96.30
2018-04-24T15:01:26.546Z,96.30
2018-04-24T15:03:54.164Z,96.40
2018-04-24T15:06:21.682Z,96.40
2018-04-24T15:08:49.184Z,96.40
2018-04-24T15:11:16.668Z,96.50
2018-04-24T15:13:45.046Z,96.40
2018-04-24T15:16:13.494Z,96.50
2018-04-24T15:18:41.023Z,96.50
2018-04-24T15:21:08.603Z,96.70
2018-04-24T15:23:36.092Z,96.70
2018-04-24T15:26:03.600Z,96.60
2018-04-24T15:28:31.288Z,96.40
2018-04-24T15:30:58.801Z,96.40
2018-04-24T15:33:27.036Z,96.30
2018-04-24T15:35:56.052Z,96.30
2018-04-24T15:38:24.303Z,96.10
2018-04-24T15:40:51.804Z,96.10
2018-04-24T15:43:20.168Z,95.90
2018-04-24T15:45:48.488Z,96.10
2018-04-24T15:48:15.991Z,96.10
2018-04-24T15:50:43.513Z,96.10
2018-04-24T15:53:11.024Z,95.70
2018-04-24T15:55:39.295Z,95.80
2018-04-24T15:58:06.905Z,95.80
2018-04-24T16:00:34.368Z,95.60
2018-04-24T16:03:01.848Z,95.60
2018-04-24T16:05:30.118Z,95.60
2018-04-24T16:07:57.636Z,95.50
2018-04-24T16:10:25.160Z,95.40
2018-04-24T16:12:53.057Z,95.10
2018-04-24T16:15:21.521Z,95.50
2018-04-24T16:17:49.789Z,95.30
2018-04-24T16:20:17.283Z,95.30
2018-04-24T16:22:44.801Z,95.40
2018-04-24T16:25:12.392Z,95.30
2018-04-24T16:27:39.891Z,95.20
2018-04-24T16:30:07.409Z,95.10
2018-04-24T16:32:34.889Z,95.30
2018-04-24T16:35:02.430Z,95.40
2018-04-24T16:37:29.926Z,95.60
2018-04-24T16:39:57.430Z,95.50
2018-04-24T16:42:25.667Z,96.10
2018-04-24T16:44:53.176Z,96.00
2018-04-24T16:47:21.416Z,95.90
2018-04-24T16:49:48.897Z,95.90
2018-04-24T16:52:17.160Z,96.10
2018-04-24T16:54:46.142Z,96.20
2018-04-24T16:57:15.152Z,96.30
2018-04-24T16:59:42.612Z,96.30
2018-04-24T17:02:10.855Z,96.50
2018-04-24T17:04:38.343Z,96.50
2018-04-24T17:07:05.804Z,96.30
2018-04-24T17:09:33.367Z,96.30
2018-04-24T17:12:00.830Z,96.50
2018-04-24T17:14:29.081Z,96.70
2018-04-24T17:16:56.562Z,96.70
2018-04-24T17:19:24.837Z,96.70
2018-04-24T17:21:53.084Z,97.00
2018-04-24T17:24:20.816Z,97.00
2018-04-24T17:26:48.304Z,97.00
2018-04-24T17:29:15.768Z,97.00
2018-04-24T17:31:43.316Z,97.00
2018-04-24T17:34:10.822Z,97.20
2018-04-24T17:36:39.060Z,97.40
2018-04-24T17:39:06.567Z,97.40
2018-04-24T17:41:34.077Z,97.50
2018-04-24T17:44:01.559Z,97.40
2018-04-24T17:46:30.599Z,97.60
2018-04-24T17:48:58.092Z,97.60
2018-04-24T17:51:25.563Z,97.60
2018-04-24T17:53:53.047Z,98.00
2018-04-24T17:56:20.572Z,97.80
2018-04-24T17:58:48.048Z,97.70
2018-04-24T18:01:16.631Z,98.10
2018-04-24T18:03:44.342Z,98.10
2018-04-24T18:06:11.943Z,98.10
2018-04-24T18:08:39.412Z,98.30
2018-04-24T18:11:08.621Z,98.30
2018-04-24T18:13:36.094Z,98.30
2018-04-24T18:16:04.392Z,98.60
2018-04-24T18:18:31.918Z,98.60
2018-04-24T18:21:00.172Z,98.70
2018-04-24T18:23:27.728Z,98.70
2018-04-24T18:25:55.260Z,98.60
2018-04-24T18:28:22.802Z,98.80
2018-04-24T18:30:50.477Z,99.00
2018-04-24T18:33:18.818Z,99.00
2018-04-24T18:35:47.216Z,99.00
2018-04-24T18:38:14.765Z,99.00
2018-04-24T18:40:43.109Z,99.10
2018-04-24T18:43:11.418Z,99.30
2018-04-24T18:45:39.690Z,99.30
2018-04-24T18:48:08.001Z,99.40
2018-04-24T18:50:35.475Z,99.40
2018-04-24T18:53:03.658Z,99.30
2018-04-24T18:55:31.236Z,99.40
2018-04-24T18:58:00.265Z,99.50
2018-04-24T19:00:28.507Z,99.40
2018-04-24T19:02:56.755Z,99.70
2018-04-24T19:05:24.228Z,99.70
2018-04-24T19:07:51.726Z,99.80
2018-04-24T19:10:20.063Z,99.90
2018-04-24T19:12:47.532Z,99.90
2018-04-24T19:15:15.015Z,99.90
2018-04-24T19:17:43.294Z,99.90
2018-04-24T19:20:11.536Z,99.80
2018-04-24T19:22:39.018Z,99.80
2018-04-24T19:25:12.307Z,99.80
2018-04-24T19:27:39.876Z,99.90
2018-04-24T19:30:07.346Z,99.90
2018-04-24T19:32:34.886Z,99.90
2018-04-24T19:35:02.409Z,99.90
2018-04-24T19:37:29.891Z,99.90
2018-04-24T19:40:03.117Z,99.90
2018-04-24T19:42:31.426Z,99.90
2018-04-24T19:44:58.898Z,99.90
2018-04-24T19:47:26.397Z,99.90
2018-04-24T19:49:59.528Z,99.90
2018-04-24T19:52:27.062Z,99.90
2018-04-24T19:55:00.996Z,99.90
2018-04-24T19:57:28.493Z,99.90
2018-04-24T19:59:56.007Z,99.90
2018-04-24T20:02:23.487Z,99.90
2018-04-24T20:04:52.488Z,99.90
2018-04-24T20:07:20.036Z,99.90
2018-04-24T20:09:47.507Z,99.90
2018-04-24T20:12:15.001Z,99.90
2018-04-24T20:14:42.509Z,99.90
2018-04-24T20:17:10.003Z,99.90
2018-04-24T20:19:37.527Z,99.90
2018-04-24T20:22:05.031Z,99.90
2018-04-24T20:24:32.506Z,99.90
2018-04-24T20:27:00.767Z,99.90
2018-04-24T20:29:29.015Z,99.90
2018-04-24T20:31:56.540Z,99.90
2018-04-24T20:34:24.010Z,99.90
2018-04-24T20:36:51.482Z,99.90
2018-04-24T20:39:18.961Z,99.90
2018-04-24T20:41:46.497Z,99.90
2018-04-24T20:44:13.968Z,99.90
2018-04-24T20:46:41.605Z,99.90
2018-04-24T20:49:09.332Z,99.90
2018-04-24T20:51:37.592Z,99.90
2018-04-24T20:54:06.570Z,99.90
2018-04-24T20:56:34.097Z,99.90
2018-04-24T20:59:02.623Z,99.90
2018-04-24T21:01:30.169Z,99.90
2018-04-24T21:03:57.685Z,99.90
2018-04-24T21:06:25.184Z,99.90
2018-04-24T21:08:52.656Z,99.90
2018-04-24T21:11:20.166Z,99.90
2018-04-24T21:13:47.664Z,99.90
2018-04-24T21:16:15.146Z,99.90
2018-04-24T21:18:43.409Z,99.90
2018-04-24T21:21:10.879Z,99.90
2018-04-24T21:23:38.368Z,99.90
2018-04-24T21:26:05.950Z,99.90
2018-04-24T21:28:33.417Z,99.90
2018-04-24T21:31:00.886Z,99.90
2018-04-24T21:33:28.376Z,99.90
2018-04-24T21:35:55.844Z,99.90
2018-04-24T21:38:24.153Z,99.90
2018-04-24T21:40:52.403Z,99.90
2018-04-24T21:43:20.668Z,99.90
2018-04-24T21:45:48.983Z,99.90
2018-04-24T21:48:16.487Z,99.90
2018-04-24T21:50:43.963Z,99.90
2018-04-24T21:53:12.228Z,99.90
2018-04-24T21:55:39.729Z,99.90
2018-04-24T21:58:07.213Z,99.90
2018-04-24T22:00:34.700Z,99.90
2018-04-24T22:03:02.189Z,99.90
2018-04-24T22:05:30.427Z,99.90
2018-04-24T22:07:57.927Z,99.90
2018-04-24T22:10:25.420Z,99.90
2018-04-24T22:12:52.893Z,99.90
2018-04-24T22:15:20.396Z,99.90
2018-04-24T22:17:48.628Z,99.90
2018-04-24T22:20:16.115Z,99.90
2018-04-24T22:22:43.584Z,99.90
2018-04-24T22:25:11.845Z,99.90
2018-04-24T22:27:39.331Z,99.90
2018-04-24T22:30:06.822Z,99.90
2018-04-24T22:32:34.323Z,99.90
2018-04-24T22:35:01.806Z,99.90
2018-04-24T22:37:29.306Z,99.90
2018-04-24T22:39:56.781Z,99.90
2018-04-24T22:42:24.260Z,99.90
2018-04-24T22:44:52.512Z,99.90
